createdAt,value
2022-11-28T00:00:13.375Z,1018.00
2022-11-28T00:01:17.642Z,1017.97
2022-11-28T00:02:22.026Z,1017.98
2022-11-28T00:03:26.167Z,1017.95
2022-11-28T00:04:30.306Z,1017.95
2022-11-28T00:05:34.646Z,1017.95
2022-11-28T00:06:38.751Z,1017.93
2022-11-28T00:07:43.148Z,1017.92
2022-11-28T00:08:47.384Z,1017.91
2022-11-28T00:09:51.517Z,1017.88
2022-11-28T00:10:55.762Z,1017.87
2022-11-28T00:11:59.929Z,1017.88
2022-11-28T00:13:04.215Z,1017.86
2022-11-28T00:14:08.322Z,1017.86
2022-11-28T00:15:12.700Z,1017.85
2022-11-28T00:16:16.956Z,1017.84
2022-11-28T00:17:21.021Z,1017.82
2022-11-28T00:18:25.192Z,1017.77
2022-11-28T00:19:29.390Z,1017.74
2022-11-28T00:20:33.543Z,1017.76
2022-11-28T00:21:37.737Z,1017.75
2022-11-28T00:22:42.016Z,1017.73
2022-11-28T00:23:46.132Z,1017.69
2022-11-28T00:24:50.426Z,1017.68
2022-11-28T00:25:54.495Z,1017.66
2022-11-28T00:26:58.786Z,1017.64
2022-11-28T00:28:02.869Z,1017.66
2022-11-28T00:29:07.092Z,1017.64
2022-11-28T00:30:11.330Z,1017.67
2022-11-28T00:31:15.509Z,1017.68
2022-11-28T00:32:19.637Z,1017.67
2022-11-28T00:33:23.794Z,1017.66
2022-11-28T00:34:27.980Z,1017.67
2022-11-28T00:35:32.157Z,1017.68
2022-11-28T00:36:36.370Z,1017.68
2022-11-28T00:37:40.664Z,1017.65
2022-11-28T00:38:44.791Z,1017.63
2022-11-28T00:39:48.995Z,1017.61
2022-11-28T00:40:53.302Z,1017.62
2022-11-28T00:41:57.373Z,1017.58
2022-11-28T00:43:01.564Z,1017.56
2022-11-28T00:44:05.796Z,1017.55
2022-11-28T00:45:09.996Z,1017.56
2022-11-28T00:46:14.322Z,1017.55
2022-11-28T00:47:18.411Z,1017.51
2022-11-28T00:48:22.619Z,1017.52
2022-11-28T00:49:26.827Z,1017.52
2022-11-28T00:50:30.963Z,1017.53
2022-11-28T00:51:35.252Z,1017.51
2022-11-28T00:52:39.466Z,1017.49
2022-11-28T00:53:43.709Z,1017.51
2022-11-28T00:54:47.956Z,1017.50
2022-11-28T00:55:52.058Z,1017.45
2022-11-28T00:56:56.277Z,1017.45
2022-11-28T00:58:00.368Z,1017.45
2022-11-28T00:59:04.656Z,1017.45
2022-11-28T01:00:08.887Z,1017.43
2022-11-28T01:01:13.043Z,1017.41
2022-11-28T01:02:17.391Z,1017.41
2022-11-28T01:03:21.414Z,1017.40
2022-11-28T01:04:25.606Z,1017.39
2022-11-28T01:05:29.812Z,1017.42
2022-11-28T01:06:34.182Z,1017.43
2022-11-28T01:07:38.417Z,1017.46
2022-11-28T01:08:42.567Z,1017.46
2022-11-28T01:09:46.716Z,1017.43
2022-11-28T01:10:50.923Z,1017.46
2022-11-28T01:11:55.087Z,1017.47
2022-11-28T01:12:59.434Z,1017.45
2022-11-28T01:14:03.588Z,1017.46
2022-11-28T01:15:07.771Z,1017.44
2022-11-28T01:16:11.969Z,1017.46
2022-11-28T01:17:16.117Z,1017.45
2022-11-28T01:18:20.396Z,1017.45
2022-11-28T01:19:24.551Z,1017.42
2022-11-28T01:20:28.813Z,1017.43
2022-11-28T01:21:32.958Z,1017.40
2022-11-28T01:22:37.215Z,1017.44
2022-11-28T01:23:41.303Z,1017.39
2022-11-28T01:24:45.527Z,1017.41
2022-11-28T01:25:49.681Z,1017.39
2022-11-28T01:26:53.855Z,1017.40
2022-11-28T01:27:58.172Z,1017.36
2022-11-28T01:29:02.431Z,1017.33
2022-11-28T01:30:06.512Z,1017.33
2022-11-28T01:31:10.910Z,1017.28
2022-11-28T01:32:14.974Z,1017.32
2022-11-28T01:33:19.175Z,1017.31
2022-11-28T01:34:23.348Z,1017.28
2022-11-28T01:35:27.550Z,1017.28
2022-11-28T01:36:31.738Z,1017.20
2022-11-28T01:37:36.014Z,1017.23
2022-11-28T01:38:40.171Z,1017.21
2022-11-28T01:39:44.374Z,1017.21
2022-11-28T01:40:48.579Z,1017.19
2022-11-28T01:41:52.692Z,1017.16
2022-11-28T01:42:57.050Z,1017.16
2022-11-28T01:44:01.207Z,1017.13
2022-11-28T01:45:05.503Z,1017.18
2022-11-28T01:46:09.645Z,1017.16
2022-11-28T01:47:13.946Z,1017.17
2022-11-28T01:48:17.933Z,1017.17
2022-11-28T01:49:22.165Z,1017.17
2022-11-28T01:50:26.372Z,1017.12
2022-11-28T01:51:30.566Z,1017.12
2022-11-28T01:52:34.855Z,1017.12
2022-11-28T01:53:38.996Z,1017.12
2022-11-28T01:54:43.576Z,1017.08
2022-11-28T01:55:47.460Z,1017.07
2022-11-28T01:56:51.594Z,1017.04
2022-11-28T01:57:55.890Z,1017.02
2022-11-28T01:59:00.092Z,1017.02
2022-11-28T02:00:04.257Z,1017.02
2022-11-28T02:01:08.618Z,1016.98
2022-11-28T02:02:12.782Z,1016.97
2022-11-28T02:03:16.840Z,1016.93
2022-11-28T02:04:20.999Z,1016.96
2022-11-28T02:05:25.291Z,1016.96
2022-11-28T02:06:29.520Z,1016.93
2022-11-28T02:07:33.792Z,1016.96
2022-11-28T02:08:37.995Z,1016.96
2022-11-28T02:09:42.222Z,1016.99
2022-11-28T02:10:46.452Z,1016.98
2022-11-28T02:11:50.682Z,1016.98
2022-11-28T02:12:54.914Z,1016.94
2022-11-28T02:13:59.152Z,1016.95
2022-11-28T02:15:03.370Z,1016.91
2022-11-28T02:16:07.679Z,1016.91
2022-11-28T02:17:11.950Z,1016.88
2022-11-28T02:18:15.982Z,1016.87
2022-11-28T02:19:20.152Z,1016.86
2022-11-28T02:20:24.385Z,1016.86
2022-11-28T02:21:28.660Z,1016.84
2022-11-28T02:22:32.802Z,1016.87
2022-11-28T02:23:37.108Z,1016.84
2022-11-28T02:24:41.511Z,1016.81
2022-11-28T02:25:45.505Z,1016.83
2022-11-28T02:26:49.718Z,1016.82
2022-11-28T02:27:53.935Z,1016.83
2022-11-28T02:28:58.176Z,1016.84
2022-11-28T02:30:02.424Z,1016.80
2022-11-28T02:31:06.708Z,1016.78
2022-11-28T02:32:10.782Z,1016.80
2022-11-28T02:33:15.194Z,1016.81
2022-11-28T02:34:19.210Z,1016.79
2022-11-28T02:35:23.413Z,1016.77
2022-11-28T02:36:27.574Z,1016.78
2022-11-28T02:37:31.727Z,1016.75
2022-11-28T02:38:36.009Z,1016.74
2022-11-28T02:39:40.164Z,1016.70
2022-11-28T02:40:44.454Z,1016.72
2022-11-28T02:41:48.800Z,1016.68
2022-11-28T02:42:52.997Z,1016.70
2022-11-28T02:44:01.434Z,1016.66
2022-11-28T02:45:01.291Z,1016.61
2022-11-28T02:46:05.465Z,1016.59
2022-11-28T02:47:09.771Z,1016.61
2022-11-28T02:48:13.941Z,1016.57
2022-11-28T02:49:18.239Z,1016.57
2022-11-28T02:50:22.380Z,1016.58
2022-11-28T02:51:26.502Z,1016.58
2022-11-28T02:52:30.755Z,1016.57
2022-11-28T02:53:34.913Z,1016.59
2022-11-28T02:54:39.152Z,1016.56
2022-11-28T02:55:43.274Z,1016.56
2022-11-28T02:56:47.602Z,1016.57
2022-11-28T02:57:51.716Z,1016.54
2022-11-28T02:58:55.879Z,1016.51
2022-11-28T03:00:00.085Z,1016.49
2022-11-28T03:01:04.413Z,1016.47
2022-11-28T03:02:08.677Z,1016.48
2022-11-28T03:03:12.801Z,1016.43
2022-11-28T03:04:16.981Z,1016.44
2022-11-28T03:05:21.394Z,1016.45
2022-11-28T03:06:25.352Z,1016.46
2022-11-28T03:07:29.722Z,1016.44
2022-11-28T03:08:33.804Z,1016.44
2022-11-28T03:09:38.066Z,1016.44
2022-11-28T03:10:42.281Z,1016.41
2022-11-28T03:11:46.609Z,1016.39
2022-11-28T03:12:50.716Z,1016.36
2022-11-28T03:13:54.900Z,1016.36
2022-11-28T03:14:59.029Z,1016.36
2022-11-28T03:16:03.415Z,1016.37
2022-11-28T03:17:07.485Z,1016.35
2022-11-28T03:18:11.838Z,1016.34
2022-11-28T03:19:16.034Z,1016.34
2022-11-28T03:20:20.232Z,1016.36
2022-11-28T03:21:24.382Z,1016.34
2022-11-28T03:22:28.469Z,1016.33
2022-11-28T03:23:32.704Z,1016.31
2022-11-28T03:24:36.847Z,1016.31
2022-11-28T03:25:41.171Z,1016.31
2022-11-28T03:26:45.297Z,1016.28
2022-11-28T03:27:49.499Z,1016.26
2022-11-28T03:28:53.677Z,1016.25
2022-11-28T03:29:57.937Z,1016.23
2022-11-28T03:31:02.211Z,1016.24
2022-11-28T03:32:06.222Z,1016.19
2022-11-28T03:33:10.552Z,1016.21
2022-11-28T03:34:14.762Z,1016.19
2022-11-28T03:35:18.917Z,1016.18
2022-11-28T03:36:23.153Z,1016.16
2022-11-28T03:37:27.503Z,1016.23
2022-11-28T03:38:31.510Z,1016.21
2022-11-28T03:39:35.709Z,1016.20
2022-11-28T03:40:39.976Z,1016.20
2022-11-28T03:41:47.092Z,1016.21
2022-11-28T03:42:50.423Z,1016.20
2022-11-28T03:43:54.529Z,1016.25
2022-11-28T03:45:01.718Z,1016.22
2022-11-28T03:46:05.006Z,1016.21
2022-11-28T03:47:09.397Z,1016.17
2022-11-28T03:48:13.468Z,1016.12
2022-11-28T03:49:17.578Z,1016.11
2022-11-28T03:50:21.827Z,1016.14
2022-11-28T03:51:25.962Z,1016.12
2022-11-28T03:52:30.183Z,1016.13
2022-11-28T03:53:34.510Z,1016.10
2022-11-28T03:54:38.582Z,1016.11
2022-11-28T03:55:42.805Z,1016.09
2022-11-28T03:56:46.977Z,1016.10
2022-11-28T03:57:51.131Z,1016.11
2022-11-28T03:58:55.304Z,1016.08
2022-11-28T03:59:59.579Z,1016.13
2022-11-28T04:01:03.786Z,1016.09
2022-11-28T04:02:07.884Z,1016.10
2022-11-28T04:03:12.119Z,1016.09
2022-11-28T04:04:16.347Z,1016.09
2022-11-28T04:05:20.634Z,1016.09
2022-11-28T04:06:24.831Z,1016.03
2022-11-28T04:07:29.083Z,1016.07
2022-11-28T04:08:36.280Z,1016.05
2022-11-28T04:09:39.336Z,1016.01
2022-11-28T04:10:43.541Z,1016.01
2022-11-28T04:11:47.825Z,1016.06
2022-11-28T04:12:51.986Z,1016.05
2022-11-28T04:13:56.182Z,1016.03
2022-11-28T04:15:00.336Z,1016.03
2022-11-28T04:16:04.656Z,1016.02
2022-11-28T04:17:08.739Z,1016.03
2022-11-28T04:18:12.890Z,1016.02
2022-11-28T04:19:17.100Z,1015.97
2022-11-28T04:20:21.304Z,1015.98
2022-11-28T04:21:25.474Z,1015.97
2022-11-28T04:22:29.664Z,1015.97
2022-11-28T04:23:33.854Z,1016.00
2022-11-28T04:24:38.124Z,1015.99
2022-11-28T04:25:42.236Z,1015.92
2022-11-28T04:26:46.530Z,1015.97
2022-11-28T04:27:50.698Z,1015.94
2022-11-28T04:28:54.872Z,1015.92
2022-11-28T04:29:59.042Z,1015.93
2022-11-28T04:31:03.341Z,1015.95
2022-11-28T04:32:07.557Z,1015.91
2022-11-28T04:33:11.719Z,1015.91
2022-11-28T04:34:15.871Z,1015.88
2022-11-28T04:35:20.019Z,1015.88
2022-11-28T04:36:24.188Z,1015.89
2022-11-28T04:37:28.382Z,1015.90
2022-11-28T04:38:32.563Z,1015.87
2022-11-28T04:39:36.748Z,1015.90
2022-11-28T04:40:41.077Z,1015.87
2022-11-28T04:41:45.124Z,1015.89
2022-11-28T04:42:52.819Z,1015.89
2022-11-28T04:43:53.520Z,1015.88
2022-11-28T04:44:57.702Z,1015.87
2022-11-28T04:46:01.878Z,1015.86
2022-11-28T04:47:06.058Z,1015.86
2022-11-28T04:48:10.231Z,1015.86
2022-11-28T04:49:14.440Z,1015.89
2022-11-28T04:50:18.516Z,1015.86
2022-11-28T04:51:22.853Z,1015.86
2022-11-28T04:52:26.945Z,1015.89
2022-11-28T04:53:31.167Z,1015.91
2022-11-28T04:54:35.339Z,1015.89
2022-11-28T04:55:39.537Z,1015.89
2022-11-28T04:56:43.932Z,1015.88
2022-11-28T04:57:50.687Z,1015.91
2022-11-28T04:58:52.155Z,1015.91
2022-11-28T04:59:56.367Z,1015.91
2022-11-28T05:01:00.629Z,1015.94
2022-11-28T05:02:04.794Z,1015.93
2022-11-28T05:03:08.986Z,1015.91
2022-11-28T05:04:13.216Z,1015.92
2022-11-28T05:05:17.345Z,1015.91
2022-11-28T05:06:21.623Z,1015.89
2022-11-28T05:07:25.893Z,1015.88
2022-11-28T05:08:30.003Z,1015.88
2022-11-28T05:09:34.217Z,1015.91
2022-11-28T05:10:38.395Z,1015.88
2022-11-28T05:11:42.595Z,1015.86
2022-11-28T05:12:46.869Z,1015.85
2022-11-28T05:13:50.960Z,1015.83
2022-11-28T05:14:55.162Z,1015.82
2022-11-28T05:15:59.572Z,1015.83
2022-11-28T05:17:03.656Z,1015.83
2022-11-28T05:18:07.811Z,1015.85
2022-11-28T05:19:12.109Z,1015.82
2022-11-28T05:20:16.262Z,1015.85
2022-11-28T05:21:20.527Z,1015.83
2022-11-28T05:22:24.721Z,1015.85
2022-11-28T05:23:28.874Z,1015.84
2022-11-28T05:24:33.038Z,1015.82
2022-11-28T05:25:37.329Z,1015.83
2022-11-28T05:26:41.477Z,1015.80
2022-11-28T05:27:45.642Z,1015.80
2022-11-28T05:28:49.902Z,1015.78
2022-11-28T05:29:54.113Z,1015.77
2022-11-28T05:30:58.262Z,1015.78
2022-11-28T05:32:02.496Z,1015.75
2022-11-28T05:33:06.624Z,1015.76
2022-11-28T05:34:10.821Z,1015.71
2022-11-28T05:35:14.997Z,1015.70
2022-11-28T05:36:19.171Z,1015.70
2022-11-28T05:37:23.343Z,1015.65
2022-11-28T05:38:27.451Z,1015.67
2022-11-28T05:39:31.722Z,1015.65
2022-11-28T05:40:35.913Z,1015.63
2022-11-28T05:41:40.084Z,1015.65
2022-11-28T05:42:44.316Z,1015.63
2022-11-28T05:43:48.480Z,1015.64
2022-11-28T05:44:52.799Z,1015.62
2022-11-28T05:45:57.030Z,1015.65
2022-11-28T05:47:01.050Z,1015.65
2022-11-28T05:48:05.215Z,1015.65
2022-11-28T05:49:09.402Z,1015.65
2022-11-28T05:50:13.586Z,1015.66
2022-11-28T05:51:17.809Z,1015.62
2022-11-28T05:52:22.101Z,1015.61
2022-11-28T05:53:26.264Z,1015.59
2022-11-28T05:54:30.576Z,1015.60
2022-11-28T05:55:34.781Z,1015.56
2022-11-28T05:56:42.403Z,1015.53
2022-11-28T05:57:43.235Z,1015.50
2022-11-28T05:58:47.364Z,1015.48
2022-11-28T05:59:51.458Z,1015.45
2022-11-28T06:00:55.803Z,1015.47
2022-11-28T06:01:59.925Z,1015.45
2022-11-28T06:03:03.941Z,1015.48
2022-11-28T06:04:08.300Z,1015.46
2022-11-28T06:05:40.372Z,1015.46
2022-11-28T06:06:16.599Z,1015.51
2022-11-28T06:07:20.807Z,1015.50
2022-11-28T06:08:25.011Z,1015.55
2022-11-28T06:09:29.199Z,1015.52
2022-11-28T06:10:33.367Z,1015.51
2022-11-28T06:11:37.538Z,1015.45
2022-11-28T06:12:44.933Z,1015.43
2022-11-28T06:13:48.052Z,1015.41
2022-11-28T06:14:52.224Z,1015.39
2022-11-28T06:15:56.431Z,1015.44
2022-11-28T06:17:00.852Z,1015.44
2022-11-28T06:18:04.782Z,1015.49
2022-11-28T06:19:08.986Z,1015.50
2022-11-28T06:20:13.175Z,1015.50
2022-11-28T06:21:17.367Z,1015.52
2022-11-28T06:22:21.560Z,1015.49
2022-11-28T06:23:25.812Z,1015.52
2022-11-28T06:24:29.966Z,1015.56
2022-11-28T06:25:34.245Z,1015.55
2022-11-28T06:26:38.395Z,1015.54
2022-11-28T06:27:42.571Z,1015.50
2022-11-28T06:28:46.735Z,1015.51
2022-11-28T06:29:50.842Z,1015.47
2022-11-28T06:30:55.056Z,1015.49
2022-11-28T06:31:59.276Z,1015.48
2022-11-28T06:33:03.653Z,1015.48
2022-11-28T06:34:07.649Z,1015.47
2022-11-28T06:35:11.825Z,1015.47
2022-11-28T06:36:15.980Z,1015.46
2022-11-28T06:37:20.189Z,1015.49
2022-11-28T06:38:24.366Z,1015.45
2022-11-28T06:39:28.643Z,1015.44
2022-11-28T06:40:32.775Z,1015.46
2022-11-28T06:41:36.978Z,1015.45
2022-11-28T06:42:41.231Z,1015.48
2022-11-28T06:43:45.380Z,1015.46
2022-11-28T06:44:49.582Z,1015.48
2022-11-28T06:45:53.884Z,1015.47
2022-11-28T06:46:57.959Z,1015.48
2022-11-28T06:48:02.235Z,1015.53
2022-11-28T06:49:06.517Z,1015.51
2022-11-28T06:50:10.598Z,1015.55
2022-11-28T06:51:14.776Z,1015.52
2022-11-28T06:52:18.960Z,1015.54
2022-11-28T06:53:26.138Z,1015.58
2022-11-28T06:54:27.394Z,1015.63
2022-11-28T06:55:31.682Z,1015.61
2022-11-28T06:56:36.033Z,1015.57
2022-11-28T06:57:40.102Z,1015.61
2022-11-28T06:58:44.295Z,1015.59
2022-11-28T06:59:48.539Z,1015.54
2022-11-28T07:00:52.754Z,1015.57
2022-11-28T07:01:59.272Z,1015.53
2022-11-28T07:03:01.624Z,1015.52
2022-11-28T07:04:05.844Z,1015.52
2022-11-28T07:05:09.932Z,1015.49
2022-11-28T07:06:14.171Z,1015.48
2022-11-28T07:07:18.549Z,1015.50
2022-11-28T07:08:22.604Z,1015.47
2022-11-28T07:09:26.844Z,1015.47
2022-11-28T07:10:30.978Z,1015.48
2022-11-28T07:11:35.194Z,1015.49
2022-11-28T07:12:39.379Z,1015.47
2022-11-28T07:13:43.525Z,1015.50
2022-11-28T07:14:47.713Z,1015.45
2022-11-28T07:15:52.008Z,1015.46
2022-11-28T07:16:56.196Z,1015.44
2022-11-28T07:18:00.284Z,1015.43
2022-11-28T07:19:04.581Z,1015.45
2022-11-28T07:20:08.725Z,1015.46
2022-11-28T07:21:12.992Z,1015.44
2022-11-28T07:22:17.118Z,1015.46
2022-11-28T07:23:21.194Z,1015.46
2022-11-28T07:24:25.428Z,1015.49
2022-11-28T07:25:29.622Z,1015.51
2022-11-28T07:26:33.815Z,1015.51
2022-11-28T07:27:38.014Z,1015.50
2022-11-28T07:31:00.187Z,1015.40
2022-11-28T07:32:04.286Z,1015.41
2022-11-28T07:33:08.359Z,1015.38
2022-11-28T07:34:12.528Z,1015.37
2022-11-28T07:35:16.802Z,1015.36
2022-11-28T07:36:21.083Z,1015.35
2022-11-28T07:37:25.034Z,1015.30
2022-11-28T07:38:29.341Z,1015.35
2022-11-28T07:39:33.485Z,1015.41
2022-11-28T07:40:37.651Z,1015.35
2022-11-28T07:41:41.836Z,1015.41
2022-11-28T07:42:46.033Z,1015.37
2022-11-28T07:43:50.242Z,1015.36
2022-11-28T07:44:54.360Z,1015.37
2022-11-28T07:46:01.351Z,1015.37
2022-11-28T07:47:03.047Z,1015.34
2022-11-28T07:48:07.194Z,1015.36
2022-11-28T07:49:11.381Z,1015.37
2022-11-28T07:50:18.510Z,1015.37
2022-11-28T07:51:21.739Z,1015.37
2022-11-28T07:52:25.902Z,1015.40
2022-11-28T07:53:29.979Z,1015.41
2022-11-28T07:54:34.212Z,1015.42
2022-11-28T07:55:38.399Z,1015.39
2022-11-28T07:57:12.066Z,1015.40
2022-11-28T07:57:46.720Z,1015.41
2022-11-28T08:06:03.364Z,1015.25
2022-11-28T08:07:07.034Z,1015.25
2022-11-28T08:08:11.203Z,1015.25
2022-11-28T08:09:15.379Z,1015.21
2022-11-28T08:10:19.621Z,1015.24
2022-11-28T08:11:23.756Z,1015.21
2022-11-28T08:12:27.950Z,1015.21
2022-11-28T08:13:32.145Z,1015.23
2022-11-28T08:14:36.320Z,1015.23
2022-11-28T08:15:40.372Z,1015.23
2022-11-28T08:16:44.689Z,1015.27
2022-11-28T08:17:48.807Z,1015.26
2022-11-28T08:18:52.955Z,1015.22
2022-11-28T08:19:57.160Z,1015.28
2022-11-28T08:21:01.351Z,1015.24
2022-11-28T08:22:05.505Z,1015.21
2022-11-28T08:23:10.630Z,1015.22
2022-11-28T08:24:14.568Z,1015.24
2022-11-28T08:25:18.641Z,1015.24
2022-11-28T08:26:26.094Z,1015.25
2022-11-28T08:27:27.059Z,1015.30
2022-11-28T08:28:31.233Z,1015.28
2022-11-28T08:29:35.375Z,1015.32
2022-11-28T08:30:39.582Z,1015.28
2022-11-28T08:31:43.737Z,1015.28
2022-11-28T08:32:47.921Z,1015.27
2022-11-28T08:33:52.216Z,1015.24
2022-11-28T08:34:56.212Z,1015.24
2022-11-28T08:36:00.453Z,1015.20
2022-11-28T08:37:04.653Z,1015.18
2022-11-28T08:38:08.810Z,1015.19
2022-11-28T08:39:28.528Z,1015.17
2022-11-28T08:40:17.228Z,1015.18
2022-11-28T08:41:21.394Z,1015.14
2022-11-28T08:42:25.606Z,1015.20
2022-11-28T08:43:29.818Z,1015.18
2022-11-28T08:44:33.998Z,1015.22
2022-11-28T08:45:38.269Z,1015.22
2022-11-28T08:46:42.293Z,1015.21
2022-11-28T08:47:46.447Z,1015.24
2022-11-28T08:48:50.679Z,1015.25
2022-11-28T08:49:54.958Z,1015.25
2022-11-28T08:50:58.997Z,1015.23
2022-11-28T08:52:03.252Z,1015.26
2022-11-28T08:53:08.058Z,1015.25
2022-11-28T08:54:11.717Z,1015.25
2022-11-28T08:55:15.970Z,1015.25
2022-11-28T08:56:20.105Z,1015.25
2022-11-28T08:57:24.246Z,1015.26
2022-11-28T08:58:28.552Z,1015.29
2022-11-28T08:59:32.598Z,1015.25
2022-11-28T09:00:36.808Z,1015.26
2022-11-28T09:01:41.146Z,1015.26
2022-11-28T09:02:45.188Z,1015.26
2022-11-28T09:03:49.419Z,1015.23
2022-11-28T09:04:53.446Z,1015.26
2022-11-28T09:05:57.605Z,1015.24
2022-11-28T09:07:01.824Z,1015.22
2022-11-28T09:08:10.155Z,1015.22
2022-11-28T09:09:10.243Z,1015.19
2022-11-28T09:10:14.359Z,1015.23
2022-11-28T09:11:18.530Z,1015.22
2022-11-28T09:12:22.721Z,1015.22
2022-11-28T09:13:26.769Z,1015.24
2022-11-28T09:14:30.871Z,1015.22
2022-11-28T09:15:34.979Z,1015.26
2022-11-28T09:16:39.317Z,1015.26
2022-11-28T09:17:43.362Z,1015.26
2022-11-28T09:18:47.560Z,1015.26
2022-11-28T09:19:52.790Z,1015.29
2022-11-28T09:20:56.478Z,1015.31
2022-11-28T09:22:00.687Z,1015.33
2022-11-28T09:23:04.852Z,1015.32
2022-11-28T09:24:09.096Z,1015.34
2022-11-28T09:25:13.210Z,1015.32
2022-11-28T09:26:17.383Z,1015.37
2022-11-28T09:27:21.539Z,1015.36
2022-11-28T09:28:25.728Z,1015.38
2022-11-28T09:29:29.949Z,1015.38
2022-11-28T09:30:34.180Z,1015.38
2022-11-28T09:31:41.919Z,1015.41
2022-11-28T09:32:42.399Z,1015.40
2022-11-28T09:33:46.524Z,1015.44
2022-11-28T09:35:59.676Z,1015.50
2022-11-28T09:37:05.096Z,1015.49
2022-11-28T09:38:07.843Z,1015.48
2022-11-28T09:39:12.139Z,1015.45
2022-11-28T09:40:16.720Z,1015.46
2022-11-28T09:41:20.556Z,1015.43
2022-11-28T09:42:24.742Z,1015.41
2022-11-28T09:43:29.035Z,1015.38
2022-11-28T09:44:33.116Z,1015.35
2022-11-28T09:45:37.301Z,1015.35
2022-11-28T09:46:41.492Z,1015.34
2022-11-28T09:47:45.679Z,1015.28
2022-11-28T09:48:49.733Z,1015.27
2022-11-28T09:49:53.967Z,1015.26
2022-11-28T09:50:58.271Z,1015.25
2022-11-28T09:52:02.565Z,1015.22
2022-11-28T09:53:06.750Z,1015.22
2022-11-28T09:54:10.982Z,1015.19
2022-11-28T09:55:15.094Z,1015.21
2022-11-28T09:56:19.261Z,1015.21
2022-11-28T09:57:23.569Z,1015.22
2022-11-28T09:58:27.657Z,1015.20
2022-11-28T09:59:31.768Z,1015.22
2022-11-28T10:00:35.874Z,1015.16
2022-11-28T10:01:40.152Z,1015.19
2022-11-28T10:02:44.341Z,1015.17
2022-11-28T10:03:48.571Z,1015.14
2022-11-28T10:04:52.737Z,1015.16
2022-11-28T10:05:56.822Z,1015.08
2022-11-28T10:07:04.018Z,1015.09
2022-11-28T10:08:07.402Z,1015.08
2022-11-28T10:09:11.458Z,1015.06
2022-11-28T10:10:15.723Z,1015.01
2022-11-28T10:11:19.867Z,1015.01
2022-11-28T10:12:24.089Z,1015.00
2022-11-28T10:13:41.268Z,1015.02
2022-11-28T10:14:32.455Z,1015.00
2022-11-28T10:15:36.775Z,1014.97
2022-11-28T10:16:40.898Z,1014.95
2022-11-28T10:17:45.082Z,1014.94
2022-11-28T10:18:49.272Z,1014.91
2022-11-28T10:19:54.850Z,1014.93
2022-11-28T10:20:57.531Z,1014.88
2022-11-28T10:22:01.823Z,1014.85
2022-11-28T10:23:06.028Z,1014.83
2022-11-28T10:24:10.182Z,1014.84
2022-11-28T10:25:14.383Z,1014.86
2022-11-28T10:26:18.549Z,1014.89
2022-11-28T10:27:26.924Z,1014.93
2022-11-28T10:28:26.798Z,1014.94
2022-11-28T10:29:31.125Z,1014.95
2022-11-28T10:30:35.344Z,1014.97
2022-11-28T10:31:39.485Z,1015.02
2022-11-28T10:32:43.668Z,1015.00
2022-11-28T10:33:47.825Z,1015.00
2022-11-28T10:34:51.975Z,1015.01
2022-11-28T10:35:56.166Z,1015.02
2022-11-28T10:37:00.270Z,1015.07
2022-11-28T10:38:04.482Z,1015.06
2022-11-28T10:39:11.217Z,1015.02
2022-11-28T10:40:12.867Z,1015.07
2022-11-28T10:41:17.038Z,1015.06
2022-11-28T10:42:21.340Z,1015.06
2022-11-28T10:43:25.554Z,1015.03
2022-11-28T10:44:29.628Z,1015.04
2022-11-28T10:45:33.772Z,1015.06
2022-11-28T10:46:37.921Z,1015.11
2022-11-28T10:47:42.193Z,1015.11
2022-11-28T10:48:46.366Z,1015.11
2022-11-28T10:49:50.580Z,1015.12
2022-11-28T10:50:54.706Z,1015.11
2022-11-28T10:51:59.008Z,1015.07
2022-11-28T10:53:03.287Z,1015.10
2022-11-28T10:54:07.393Z,1015.08
2022-11-28T10:55:11.564Z,1015.07
2022-11-28T10:56:15.887Z,1015.09
2022-11-28T10:57:20.040Z,1015.07
2022-11-28T10:58:24.256Z,1015.05
2022-11-28T10:59:28.408Z,1015.03
2022-11-28T11:00:32.596Z,1015.01
2022-11-28T11:01:36.895Z,1014.99
2022-11-28T11:02:41.005Z,1015.02
2022-11-28T11:03:45.322Z,1015.00
2022-11-28T11:04:49.502Z,1014.99
2022-11-28T11:05:53.598Z,1015.00
2022-11-28T11:07:08.219Z,1015.02
2022-11-28T11:08:02.100Z,1015.02
2022-11-28T11:09:06.275Z,1015.03
2022-11-28T11:10:10.448Z,1015.02
2022-11-28T11:11:14.632Z,1015.06
2022-11-28T11:12:18.890Z,1015.09
2022-11-28T11:13:23.018Z,1015.04
2022-11-28T11:14:27.230Z,1015.04
2022-11-28T11:15:31.353Z,1015.03
2022-11-28T11:16:35.707Z,1015.03
2022-11-28T11:17:39.816Z,1015.05
2022-11-28T11:18:47.064Z,1015.05
2022-11-28T11:19:50.318Z,1015.07
2022-11-28T11:20:54.464Z,1015.05
2022-11-28T11:21:58.664Z,1015.04
2022-11-28T11:23:02.913Z,1015.03
2022-11-28T11:24:07.083Z,1015.02
2022-11-28T11:25:11.254Z,1014.96
2022-11-28T11:26:15.459Z,1014.94
2022-11-28T11:27:19.588Z,1014.88
2022-11-28T11:28:23.799Z,1014.85
2022-11-28T11:29:28.000Z,1014.83
2022-11-28T11:30:32.167Z,1014.82
2022-11-28T11:31:36.403Z,1014.80
2022-11-28T11:32:40.557Z,1014.88
2022-11-28T11:33:44.748Z,1014.88
2022-11-28T11:34:49.016Z,1014.86
2022-11-28T11:35:53.178Z,1014.84
2022-11-28T11:36:57.341Z,1014.87
2022-11-28T11:38:01.518Z,1014.83
2022-11-28T11:39:05.840Z,1014.83
2022-11-28T11:40:09.951Z,1014.77
2022-11-28T11:41:14.136Z,1014.75
2022-11-28T11:42:18.320Z,1014.74
2022-11-28T11:43:22.478Z,1014.77
2022-11-28T11:44:26.683Z,1014.75
2022-11-28T11:45:30.917Z,1014.75
2022-11-28T11:46:35.166Z,1014.75
2022-11-28T11:47:39.278Z,1014.75
2022-11-28T11:48:43.451Z,1014.75
2022-11-28T11:49:47.684Z,1014.74
2022-11-28T11:50:51.812Z,1014.75
2022-11-28T11:51:56.140Z,1014.72
2022-11-28T11:53:00.300Z,1014.72
2022-11-28T11:54:04.447Z,1014.73
2022-11-28T11:55:08.614Z,1014.73
2022-11-28T11:56:12.796Z,1014.70
2022-11-28T11:57:32.669Z,1014.69
2022-11-28T11:58:21.043Z,1014.64
2022-11-28T11:59:28.261Z,1014.66
2022-11-28T12:00:31.488Z,1014.66
2022-11-28T12:01:35.728Z,1014.64
2022-11-28T12:02:40.100Z,1014.64
2022-11-28T12:03:43.952Z,1014.63
2022-11-28T12:04:52.623Z,1014.63
2022-11-28T12:06:13.298Z,1014.61
2022-11-28T12:06:56.581Z,1014.64
2022-11-28T12:08:00.874Z,1014.59
2022-11-28T12:09:04.899Z,1014.59
2022-11-28T12:10:09.150Z,1014.59
2022-11-28T12:11:13.304Z,1014.61
2022-11-28T12:12:17.568Z,1014.57
2022-11-28T12:13:21.779Z,1014.57
2022-11-28T12:14:25.904Z,1014.58
2022-11-28T12:15:30.107Z,1014.57
2022-11-28T12:16:34.337Z,1014.59
2022-11-28T12:17:48.943Z,1014.62
2022-11-28T12:18:42.617Z,1014.60
2022-11-28T12:19:46.758Z,1014.58
2022-11-28T12:20:51.008Z,1014.55
2022-11-28T12:21:55.148Z,1014.49
2022-11-28T12:22:59.384Z,1014.49
2022-11-28T12:24:03.556Z,1014.47
2022-11-28T12:25:07.745Z,1014.46
2022-11-28T12:26:11.950Z,1014.42
2022-11-28T12:27:16.205Z,1014.41
2022-11-28T12:28:20.323Z,1014.37
2022-11-28T12:29:24.498Z,1014.36
2022-11-28T12:30:28.775Z,1014.38
2022-11-28T12:31:32.956Z,1014.34
2022-11-28T12:32:37.187Z,1014.37
2022-11-28T12:33:41.313Z,1014.36
2022-11-28T12:34:45.493Z,1014.30
2022-11-28T12:35:49.719Z,1014.31
2022-11-28T12:36:53.933Z,1014.26
2022-11-28T12:38:13.515Z,1014.24
2022-11-28T12:39:02.362Z,1014.28
2022-11-28T12:40:06.660Z,1014.28
2022-11-28T12:41:10.850Z,1014.26
2022-11-28T12:42:15.030Z,1014.26
2022-11-28T12:43:19.179Z,1014.26
2022-11-28T12:44:23.345Z,1014.20
2022-11-28T12:45:27.618Z,1014.26
2022-11-28T12:46:31.741Z,1014.20
2022-11-28T12:47:35.907Z,1014.20
2022-11-28T12:48:40.127Z,1014.20
2022-11-28T12:49:47.702Z,1014.22
2022-11-28T12:50:50.664Z,1014.21
2022-11-28T12:51:54.877Z,1014.18
2022-11-28T12:52:58.990Z,1014.21
2022-11-28T12:54:03.152Z,1014.20
2022-11-28T12:55:07.355Z,1014.16
2022-11-28T12:56:11.556Z,1014.23
2022-11-28T12:57:15.791Z,1014.19
2022-11-28T12:58:19.943Z,1014.15
2022-11-28T12:59:24.121Z,1014.16
2022-11-28T13:00:28.274Z,1014.19
2022-11-28T13:01:32.549Z,1014.16
2022-11-28T13:02:36.876Z,1014.18
2022-11-28T13:03:40.839Z,1014.20
2022-11-28T13:04:45.330Z,1014.21
2022-11-28T13:05:49.291Z,1014.24
2022-11-28T13:06:53.413Z,1014.26